Time;durP1;ratioP1;P1;durP2;ratioP2;P2;SDS_P1;SDS_P2;PMS_P1;PMS_P2;Temp;Humidity;BMP_temperature;BMP_pressure;BME280_temperature;BME280_humidity;BME280_pressure;Samples;Min_cycle;Max_cycle;Signal;HPM_P1;HPM_P2
2022/06/03 00:00:27;;;;;;;5.5;3.3;;;;;;;;;;;;;
2022/06/03 00:02:53;;;;;;;3.3;3;;;;;;;;;;;;;
2022/06/03 00:05:24;;;;;;;3.3;3;;;;;;;;;;;;;
2022/06/03 00:07:55;;;;;;;3.4;3.1;;;;;;;;;;;;;
2022/06/03 00:10:22;;;;;;;4.2;3.2;;;;;;;;;;;;;
2022/06/03 00:12:49;;;;;;;3.3;3;;;;;;;;;;;;;
2022/06/03 00:15:33;;;;;;;4;3;;;;;;;;;;;;;
2022/06/03 00:17:58;;;;;;;5;3.6;;;;;;;;;;;;;
2022/06/03 00:20:24;;;;;;;3.6;3.2;;;;;;;;;;;;;
2022/06/03 00:23:01;;;;;;;4;3.1;;;;;;;;;;;;;
2022/06/03 00:25:29;;;;;;;3.3;3;;;;;;;;;;;;;
2022/06/03 00:27:54;;;;;;;4.5;3.2;;;;;;;;;;;;;
2022/06/03 00:30:19;;;;;;;4.1;3.2;;;;;;;;;;;;;
2022/06/03 00:32:45;;;;;;;4.6;2.9;;;;;;;;;;;;;
2022/06/03 00:35:11;;;;;;;5;3.4;;;;;;;;;;;;;
2022/06/03 00:37:36;;;;;;;3.1;2.8;;;;;;;;;;;;;
2022/06/03 00:40:01;;;;;;;5.9;2.9;;;;;;;;;;;;;
2022/06/03 00:42:26;;;;;;;3.7;3.1;;;;;;;;;;;;;
2022/06/03 00:44:51;;;;;;;4.1;3.1;;;;;;;;;;;;;
2022/06/03 00:47:17;;;;;;;3.2;2.9;;;;;;;;;;;;;
2022/06/03 00:49:42;;;;;;;3.2;2.7;;;;;;;;;;;;;
2022/06/03 00:52:07;;;;;;;3.2;2.9;;;;;;;;;;;;;
2022/06/03 00:54:32;;;;;;;3;2.7;;;;;;;;;;;;;
2022/06/03 00:56:57;;;;;;;3.4;3.1;;;;;;;;;;;;;
2022/06/03 00:59:23;;;;;;;2.7;2.5;;;;;;;;;;;;;
2022/06/03 01:01:48;;;;;;;2.9;2.7;;;;;;;;;;;;;
2022/06/03 01:04:13;;;;;;;2.9;2.6;;;;;;;;;;;;;
2022/06/03 01:06:40;;;;;;;3.5;2.7;;;;;;;;;;;;;
2022/06/03 01:09:05;;;;;;;4.4;3.1;;;;;;;;;;;;;
2022/06/03 01:11:30;;;;;;;3;2.6;;;;;;;;;;;;;
2022/06/03 01:13:57;;;;;;;5.3;3.1;;;;;;;;;;;;;
2022/06/03 01:16:22;;;;;;;4.6;3.1;;;;;;;;;;;;;
2022/06/03 01:18:47;;;;;;;4.4;3.1;;;;;;;;;;;;;
2022/06/03 01:21:12;;;;;;;3.1;2.8;;;;;;;;;;;;;
2022/06/03 01:23:38;;;;;;;3.9;3;;;;;;;;;;;;;
2022/06/03 01:26:03;;;;;;;4.9;3.4;;;;;;;;;;;;;
2022/06/03 01:28:28;;;;;;;3.4;2.9;;;;;;;;;;;;;
2022/06/03 01:30:53;;;;;;;4;3.1;;;;;;;;;;;;;
2022/06/03 01:33:19;;;;;;;3.3;3;;;;;;;;;;;;;
2022/06/03 01:35:46;;;;;;;3.2;2.9;;;;;;;;;;;;;
2022/06/03 01:38:11;;;;;;;3.4;3;;;;;;;;;;;;;
2022/06/03 01:40:36;;;;;;;3.2;2.9;;;;;;;;;;;;;
2022/06/03 01:43:01;;;;;;;6.6;3.3;;;;;;;;;;;;;
2022/06/03 01:45:26;;;;;;;3.6;2.8;;;;;;;;;;;;;
2022/06/03 01:47:56;;;;;;;3.9;3.1;;;;;;;;;;;;;
2022/06/03 01:50:22;;;;;;;4;3.3;;;;;;;;;;;;;
2022/06/03 01:52:47;;;;;;;5.6;3.4;;;;;;;;;;;;;
2022/06/03 01:55:16;;;;;;;3.6;2.9;;;;;;;;;;;;;
2022/06/03 01:57:41;;;;;;;4.5;3.1;;;;;;;;;;;;;
2022/06/03 02:00:06;;;;;;;3.5;3.2;;;;;;;;;;;;;
2022/06/03 02:02:31;;;;;;;3.4;2.8;;;;;;;;;;;;;
2022/06/03 02:04:56;;;;;;;5.7;3.2;;;;;;;;;;;;;
2022/06/03 02:07:22;;;;;;;3.3;3;;;;;;;;;;;;;
2022/06/03 02:09:47;;;;;;;4.6;2.9;;;;;;;;;;;;;
2022/06/03 02:12:12;;;;;;;3.5;3.1;;;;;;;;;;;;;
2022/06/03 02:14:38;;;;;;;3.1;2.8;;;;;;;;;;;;;
2022/06/03 02:17:05;;;;;;;3.4;3.1;;;;;;;;;;;;;
2022/06/03 02:19:31;;;;;;;3.7;3.1;;;;;;;;;;;;;
2022/06/03 02:21:56;;;;;;;3.7;3.1;;;;;;;;;;;;;
2022/06/03 02:24:21;;;;;;;3.3;2.9;;;;;;;;;;;;;
2022/06/03 02:26:46;;;;;;;7.1;2.7;;;;;;;;;;;;;
2022/06/03 02:31:36;;;;;;;4.2;3.5;;;;;;;;;;;;;
2022/06/03 02:34:01;;;;;;;3.9;3;;;;;;;;;;;;;
2022/06/03 02:36:27;;;;;;;4;3.1;;;;;;;;;;;;;
2022/06/03 02:38:52;;;;;;;3.1;2.8;;;;;;;;;;;;;
2022/06/03 02:41:17;;;;;;;3;2.7;;;;;;;;;;;;;
2022/06/03 02:43:42;;;;;;;3;2.7;;;;;;;;;;;;;
2022/06/03 02:46:08;;;;;;;4.4;3.1;;;;;;;;;;;;;
2022/06/03 02:48:32;;;;;;;3.1;2.8;;;;;;;;;;;;;
2022/06/03 02:51:02;;;;;;;3.7;3.1;;;;;;;;;;;;;
2022/06/03 02:53:28;;;;;;;3.8;2.7;;;;;;;;;;;;;
2022/06/03 02:55:53;;;;;;;4.7;3;;;;;;;;;;;;;
2022/06/03 02:58:18;;;;;;;4.5;3.2;;;;;;;;;;;;;
2022/06/03 03:00:44;;;;;;;3.6;3.3;;;;;;;;;;;;;
2022/06/03 03:03:09;;;;;;;4.4;4;;;;;;;;;;;;;
2022/06/03 03:05:35;;;;;;;4.3;3.1;;;;;;;;;;;;;
2022/06/03 03:08:26;;;;;;;3.7;3.2;;;;;;;;;;;;;
2022/06/03 03:10:51;;;;;;;4.7;3.2;;;;;;;;;;;;;
2022/06/03 03:13:18;;;;;;;3.7;3.2;;;;;;;;;;;;;
2022/06/03 03:15:42;;;;;;;3.5;3.2;;;;;;;;;;;;;
2022/06/03 03:18:06;;;;;;;3.4;3.1;;;;;;;;;;;;;
2022/06/03 03:20:32;;;;;;;3.1;2.8;;;;;;;;;;;;;
2022/06/03 03:22:57;;;;;;;3.9;2.9;;;;;;;;;;;;;
2022/06/03 03:25:22;;;;;;;4;3.4;;;;;;;;;;;;;
2022/06/03 03:27:47;;;;;;;5.8;3.2;;;;;;;;;;;;;
2022/06/03 03:30:15;;;;;;;3.7;3.1;;;;;;;;;;;;;
2022/06/03 03:32:40;;;;;;;4.2;3.3;;;;;;;;;;;;;
2022/06/03 03:35:05;;;;;;;3.3;3;;;;;;;;;;;;;
2022/06/03 03:37:31;;;;;;;3.3;3;;;;;;;;;;;;;
2022/06/03 03:39:56;;;;;;;5.7;3;;;;;;;;;;;;;
2022/06/03 03:42:21;;;;;;;6.5;3.2;;;;;;;;;;;;;
2022/06/03 03:44:46;;;;;;;3.7;3;;;;;;;;;;;;;
2022/06/03 03:47:11;;;;;;;3.4;2.9;;;;;;;;;;;;;
2022/06/03 03:49:37;;;;;;;4.1;3;;;;;;;;;;;;;
2022/06/03 03:52:02;;;;;;;3.5;3.2;;;;;;;;;;;;;
2022/06/03 03:54:27;;;;;;;3.8;3.1;;;;;;;;;;;;;
2022/06/03 03:56:52;;;;;;;3.7;3.3;;;;;;;;;;;;;
2022/06/03 03:59:18;;;;;;;3.3;2.9;;;;;;;;;;;;;
2022/06/03 04:02:34;;;;;;;4;3.6;;;;;;;14.08;97.25879;939.5101;;;;
2022/06/03 04:04:59;;;;;;;4.4;3.1;;;;;;;14.2;96.99707;939.5363;;;;
2022/06/03 04:07:53;;;;;;;3.4;3.1;;;;;;;14.2;96.49023;939.5923;;;;
2022/06/03 04:10:24;;;;;;;4.7;2.8;;;;;;;14.22;96.36816;939.6047;;;;
2022/06/03 04:12:49;;;;;;;4.4;3.7;;;;;;;14.3;96.01758;939.6909;;;;
2022/06/03 04:15:19;;;;;;;5.9;4.3;;;;;;;14.24;96.6709;939.6255;;;;
2022/06/03 04:17:44;;;;;;;8.1;5.5;;;;;;;14.23;96.19922;939.5558;;;;
2022/06/03 04:20:09;;;;;;;7.8;5.5;;;;;;;14.27;96.37988;939.5748;;;;
2022/06/03 04:22:38;;;;;;;9.3;5.4;;;;;;;14.26;96.59668;939.5917;;;;
2022/06/03 04:25:05;;;;;;;6.8;4.9;;;;;;;14.42;96.09082;939.5691;;;;
2022/06/03 04:27:30;;;;;;;5.2;4.3;;;;;;;14.43;96.16211;939.6078;;;;
2022/06/03 04:30:01;;;;;;;7.2;4.2;;;;;;;14.57;95.66211;939.6394;;;;
2022/06/03 04:32:26;;;;;;;5.7;3.7;;;;;;;14.72;95.38477;939.5653;;;;
2022/06/03 04:34:52;;;;;;;5.7;4.4;;;;;;;14.68;94.71777;939.5463;;;;
2022/06/03 04:37:23;;;;;;;7.2;4.7;;;;;;;14.79;94.51074;939.5826;;;;
2022/06/03 04:39:57;;;;;;;7;4.2;;;;;;;14.86;95.31055;939.6155;;;;
2022/06/03 04:42:26;;;;;;;3.4;2.9;;;;;;;15.05;93.62109;939.5306;;;;
2022/06/03 04:44:53;;;;;;;4.1;2.6;;;;;;;15.22;93.18457;939.6342;;;;
2022/06/03 04:47:18;;;;;;;2.6;2.4;;;;;;;15.29;92.44922;939.6755;;;;
2022/06/03 04:49:46;;;;;;;4.4;3.1;;;;;;;15.28;92.20313;939.6289;;;;
2022/06/03 04:52:45;;;;;;;3.2;2.9;;;;;;;15.4;91.9873;939.6555;;;;
2022/06/03 04:55:11;;;;;;;3.5;2.5;;;;;;;15.52;91.55176;939.6235;;;;
2022/06/03 04:57:37;;;;;;;3.8;2.7;;;;;;;15.62;90.93555;939.7399;;;;
2022/06/03 05:00:03;;;;;;;3.1;2.8;;;;;;;15.67;90.39258;939.7065;;;;
2022/06/03 05:02:31;;;;;;;5.5;3.2;;;;;;;15.77;90.04492;939.7056;;;;
2022/06/03 05:05:02;;;;;;;3.2;2.4;;;;;;;16.53;88.3457;939.6255;;;;
2022/06/03 05:07:27;;;;;;;5.9;2.9;;;;;;;17.66;81.78516;939.5964;;;;
2022/06/03 05:09:52;;;;;;;3.9;2.8;;;;;;;17.71;80.70215;939.5475;;;;
2022/06/03 05:12:21;;;;;;;4.6;2.7;;;;;;;17.87;80.55859;939.5436;;;;
2022/06/03 05:14:46;;;;;;;5.7;2.3;;;;;;;19;76.7373;939.4442;;;;
2022/06/03 05:17:11;;;;;;;2.8;2;;;;;;;19.33;74.93164;939.4981;;;;
2022/06/03 05:19:37;;;;;;;3.3;1.8;;;;;;;20.23;71.53613;939.4008;;;;
2022/06/03 05:22:02;;;;;;;2.9;1.9;;;;;;;21.41;67.86328;939.384;;;;
2022/06/03 05:24:27;;;;;;;4;2.2;;;;;;;21.88;64.7373;939.2679;;;;
2022/06/03 05:26:52;;;;;;;2.1;1.9;;;;;;;21.75;65.45605;939.2653;;;;
2022/06/03 05:29:18;;;;;;;2.3;2;;;;;;;20.78;68.55078;939.2556;;;;
2022/06/03 05:31:58;;;;;;;2.4;1.9;;;;;;;20.55;70.65234;939.2205;;;;
2022/06/03 05:34:23;;;;;;;4.2;2.3;;;;;;;20.7;68.70215;939.2181;;;;
2022/06/03 05:36:49;;;;;;;2.2;1.8;;;;;;;20.53;68.12598;939.2106;;;;
2022/06/03 05:40:45;;;;;;;5;2;;;;;;;20.07;70.29492;939.1831;;;;
2022/06/03 05:48:18;;;;;;;2.8;1.8;;;;;;;21;67.2627;939.264;;;;
2022/06/03 05:50:43;;;;;;;3;1.9;;;;;;;21.61;65.76367;939.3123;;;;
2022/06/03 05:53:10;;;;;;;2.5;1.8;;;;;;;22.05;63.2373;939.2574;;;;
2022/06/03 05:55:36;;;;;;;2.4;2.2;;;;;;;23.18;60.26172;939.2896;;;;
2022/06/03 05:58:01;;;;;;;2.8;1.7;;;;;;;23.31;59.12598;939.2811;;;;
2022/06/03 06:00:26;;;;;;;3.8;2.5;;;;;;;24.08;57.25098;939.2463;;;;
2022/06/03 06:02:54;;;;;;;2.5;1.9;;;;;;;25.22;54.44531;939.2207;;;;
2022/06/03 06:05:21;;;;;;;2.5;2;;;;;;;25.3;52.99121;939.1912;;;;
2022/06/03 06:07:47;;;;;;;3.3;2.1;;;;;;;26.47;49.76855;939.1483;;;;
2022/06/03 06:10:13;;;;;;;2.5;2.1;;;;;;;26.11;48.9707;939.2086;;;;
2022/06/03 06:12:40;;;;;;;3.5;2.1;;;;;;;24.28;53.45898;939.2325;;;;
2022/06/03 06:15:08;;;;;;;2.5;1.7;;;;;;;25.56;51.60547;939.2067;;;;
2022/06/03 06:17:38;;;;;;;3.9;2;;;;;;;26.41;47.96191;939.1476;;;;
2022/06/03 06:20:04;;;;;;;2.3;1.5;;;;;;;27.19;49.59961;939.1631;;;;
2022/06/03 06:22:30;;;;;;;1.7;1.6;;;;;;;29.13;44.90625;939.136;;;;
2022/06/03 06:24:55;;;;;;;2.4;1.6;;;;;;;29.55;42.64844;939.0883;;;;
2022/06/03 06:27:20;;;;;;;3.2;1.8;;;;;;;29.76;41.42773;939.0485;;;;
2022/06/03 06:29:45;;;;;;;1.3;1.2;;;;;;;28.84;42.48633;939.0469;;;;
2022/06/03 06:32:10;;;;;;;2.7;1.4;;;;;;;30.18;40.64258;938.9995;;;;
2022/06/03 06:34:36;;;;;;;1.6;1.2;;;;;;;30.03;40.09277;938.9291;;;;
2022/06/03 06:37:00;;;;;;;1.7;1.4;;;;;;;30.1;39.65625;938.8531;;;;
2022/06/03 06:39:26;;;;;;;2.5;1.6;;;;;;;30.68;40.16211;938.8536;;;;
2022/06/03 06:41:55;;;;;;;1.6;1.5;;;;;;;31.06;38.03125;938.8342;;;;
2022/06/03 06:44:25;;;;;;;1.9;1.4;;;;;;;28.03;43.53809;938.8286;;;;
2022/06/03 06:46:51;;;;;;;2.4;1.6;;;;;;;27.86;45.21875;938.813;;;;
2022/06/03 06:49:16;;;;;;;1.8;1.7;;;;;;;28.2;44.64844;938.7556;;;;
2022/06/03 06:51:46;;;;;;;1.5;1.4;;;;;;;29.67;41.37305;938.8336;;;;
2022/06/03 06:54:11;;;;;;;2.2;1.6;;;;;;;29.82;40.89648;938.7391;;;;
2022/06/03 06:56:37;;;;;;;2.7;1.5;;;;;;;30.39;41.46191;938.7467;;;;
2022/06/03 07:01:30;;;;;;;1.7;1.6;;;;;;;33.03;36.81445;938.723;;;;
2022/06/03 07:03:56;;;;;;;5;1.8;;;;;;;32.36;35.1416;938.7553;;;;
2022/06/03 07:06:21;;;;;;;2.3;1.5;;;;;;;30.48;39.42773;938.6356;;;;
2022/06/03 07:08:46;;;;;;;1.6;1.5;;;;;;;30.95;38.43945;938.6409;;;;
2022/06/03 07:11:13;;;;;;;2.1;1.9;;;;;;;29.73;39.2793;938.5549;;;;
2022/06/03 07:13:39;;;;;;;2.8;1.9;;;;;;;31.17;37.76465;938.5197;;;;
2022/06/03 07:16:04;;;;;;;1.6;1.5;;;;;;;29.87;40.51953;938.4384;;;;
2022/06/03 07:20:56;;;;;;;2;1.4;;;;;;;31.67;37.4834;938.4984;;;;
2022/06/03 07:23:22;;;;;;;1.6;1.5;;;;;;;31.74;37.23828;938.4542;;;;
2022/06/03 07:25:46;;;;;;;1.8;1.5;;;;;;;31.25;37.31641;938.4514;;;;
2022/06/03 07:28:13;;;;;;;2.2;1.3;;;;;;;32.42;36.84961;938.355;;;;
2022/06/03 07:30:40;;;;;;;1.4;1.3;;;;;;;32.83;35.47852;938.2856;;;;
2022/06/03 07:33:04;;;;;;;2;1.4;;;;;;;33.93;34.80664;938.2434;;;;
2022/06/03 07:35:32;;;;;;;2;1.6;;;;;;;32.66;35.52441;938.2043;;;;
2022/06/03 07:37:57;;;;;;;1.6;1.5;;;;;;;31.95;35.18164;938.1584;;;;
2022/06/03 07:40:24;;;;;;;2.8;1.6;;;;;;;30.8;37.50684;938.1262;;;;
2022/06/03 07:42:47;;;;;;;2.8;1.9;;;;;;;33.35;35.60352;938.0898;;;;
2022/06/03 07:45:12;;;;;;;3.1;1.5;;;;;;;31.79;36.73828;938.0533;;;;
2022/06/03 07:47:37;;;;;;;5.3;1.8;;;;;;;31.44;37.15332;938.0081;;;;
2022/06/03 07:50:02;;;;;;;1.8;1.7;;;;;;;31.93;37.93555;938.0084;;;;
2022/06/03 07:52:28;;;;;;;3.1;1.5;;;;;;;31.67;36.48926;937.9977;;;;
2022/06/03 07:54:55;;;;;;;8.3;2.2;;;;;;;31.49;38.09082;937.9511;;;;
2022/06/03 07:57:18;;;;;;;1.8;1.7;;;;;;;33.31;35.58789;937.8837;;;;
2022/06/03 07:59:44;;;;;;;2.3;1.5;;;;;;;34.03;30.63574;937.8652;;;;
2022/06/03 08:02:13;;;;;;;1.4;1.3;;;;;;;33.83;31.44141;937.8248;;;;
2022/06/03 08:04:36;;;;;;;1.8;1.6;;;;;;;33.19;31.78125;937.7776;;;;
2022/06/03 08:11:59;;;;;;;2.7;1.6;;;;;;;32.62;31.95801;937.7438;;;;
2022/06/03 08:14:21;;;;;;;2.4;1.4;;;;;;;31.95;32.09082;937.7581;;;;
2022/06/03 08:16:46;;;;;;;2.7;1.5;;;;;;;33.3;32.4502;937.6736;;;;
2022/06/03 08:19:12;;;;;;;2;1.7;;;;;;;35.54;29.53027;937.6945;;;;
2022/06/03 08:21:38;;;;;;;1.6;1.5;;;;;;;35.98;28.44629;937.6774;;;;
2022/06/03 08:24:06;;;;;;;1.9;1.8;;;;;;;33.25;31.00488;937.5924;;;;
2022/06/03 08:26:31;;;;;;;2.1;1.9;;;;;;;33.31;31.27246;937.5128;;;;
2022/06/03 08:28:56;;;;;;;2;1.9;;;;;;;33.95;31.94336;937.5129;;;;
2022/06/03 08:31:25;;;;;;;1.9;1.8;;;;;;;32.98;33.20703;937.5298;;;;
2022/06/03 08:33:52;;;;;;;5.8;2.2;;;;;;;33.09;33.34863;937.5619;;;;
2022/06/03 08:36:18;;;;;;;3.9;1.9;;;;;;;34.09;30.61621;937.5633;;;;
2022/06/03 08:38:43;;;;;;;3.5;1.6;;;;;;;34.37;31.6709;937.5502;;;;
2022/06/03 08:41:12;;;;;;;2.9;2;;;;;;;34.87;30.80078;937.497;;;;
2022/06/03 08:43:37;;;;;;;1.7;1.6;;;;;;;33.84;31.75488;937.4071;;;;
2022/06/03 08:46:05;;;;;;;2.9;1.7;;;;;;;33.25;34.94629;937.3992;;;;
2022/06/03 08:48:30;;;;;;;3.1;1.9;;;;;;;33.67;31.50293;937.4116;;;;
2022/06/03 08:50:55;;;;;;;1.7;1.6;;;;;;;31.16;32.85938;937.4464;;;;
2022/06/03 08:53:20;;;;;;;2.3;1.9;;;;;;;31.75;32.69922;937.3596;;;;
2022/06/03 08:55:45;;;;;;;3.7;1.6;;;;;;;31.71;32.10938;937.3448;;;;
2022/06/03 08:58:10;;;;;;;1.7;1.2;;;;;;;31.77;31;937.2841;;;;
2022/06/03 09:00:35;;;;;;;1.8;1.7;;;;;;;32.41;31.94336;937.283;;;;
2022/06/03 09:03:01;;;;;;;2.9;1.6;;;;;;;32.34;32.30957;937.2417;;;;
2022/06/03 09:05:26;;;;;;;3.1;1.9;;;;;;;31.63;34.24707;937.2452;;;;
2022/06/03 09:07:51;;;;;;;4;1.7;;;;;;;32.97;30.85352;937.1985;;;;
2022/06/03 09:10:16;;;;;;;1.8;1.5;;;;;;;33.61;32.71289;937.1817;;;;
2022/06/03 09:12:56;;;;;;;3;1.6;;;;;;;34.03;33.70605;937.1627;;;;
2022/06/03 09:15:23;;;;;;;2.2;1.7;;;;;;;32.6;31.46387;937.0707;;;;
2022/06/03 09:17:54;;;;;;;3.5;1.7;;;;;;;31.81;32.6543;936.9738;;;;
2022/06/03 09:20:23;;;;;;;2.8;1.9;;;;;;;33.01;33.56934;936.9337;;;;
2022/06/03 09:22:48;;;;;;;2;1.9;;;;;;;32.44;33.55273;936.8664;;;;
2022/06/03 09:25:13;;;;;;;4.2;2.3;;;;;;;33.61;31.78711;936.8121;;;;
2022/06/03 09:27:41;;;;;;;2.2;2;;;;;;;34.84;31.74023;936.8027;;;;
2022/06/03 09:30:05;;;;;;;2.3;2.1;;;;;;;34.66;30.12402;936.7661;;;;
2022/06/03 09:32:30;;;;;;;1.9;1.7;;;;;;;33.54;31.48047;936.7178;;;;
2022/06/03 09:34:56;;;;;;;1.9;1.7;;;;;;;33.54;30.4834;936.6672;;;;
2022/06/03 09:37:21;;;;;;;2.9;2;;;;;;;34;31.81348;936.6744;;;;
2022/06/03 09:39:46;;;;;;;3.6;1.9;;;;;;;34.1;29.08789;936.6071;;;;
2022/06/03 09:42:11;;;;;;;2.9;2;;;;;;;34.43;28.80762;936.5753;;;;
2022/06/03 09:44:40;;;;;;;2.9;2;;;;;;;34.91;32.25195;936.519;;;;
2022/06/03 09:47:05;;;;;;;2.7;1.8;;;;;;;35.58;29.79785;936.4232;;;;
2022/06/03 09:49:34;;;;;;;2;1.7;;;;;;;34.8;32.81055;936.3779;;;;
2022/06/03 09:51:59;;;;;;;8.5;2.1;;;;;;;35.07;31.35742;936.378;;;;
2022/06/03 09:54:23;;;;;;;2.9;2;;;;;;;35.56;31.81348;936.2687;;;;
2022/06/03 09:56:51;;;;;;;1.7;1.6;;;;;;;35.83;29.58496;936.2049;;;;
2022/06/03 09:59:16;;;;;;;9.3;1.8;;;;;;;34.95;32.39844;936.2064;;;;
2022/06/03 10:01:46;;;;;;;13.1;3.3;;;;;;;35.01;32.42676;936.2578;;;;
2022/06/03 10:04:15;;;;;;;1.8;1.7;;;;;;;34;33.40332;936.2155;;;;
2022/06/03 10:06:46;;;;;;;2.5;2.1;;;;;;;33.28;35.15234;936.1889;;;;
2022/06/03 10:13:55;;;;;;;4.5;2.1;;;;;;;31.88;38.66309;936.206;;;;
2022/06/03 10:16:21;;;;;;;2.3;1.7;;;;;;;32.14;35.04102;936.2177;;;;
2022/06/03 10:18:46;;;;;;;2;1.8;;;;;;;31.99;37.49902;936.2216;;;;
2022/06/03 10:21:10;;;;;;;3.6;2;;;;;;;32.17;37.34473;936.2493;;;;
2022/06/03 10:23:36;;;;;;;2.4;1.8;;;;;;;32.23;37.43359;936.2017;;;;
2022/06/03 10:26:03;;;;;;;2.1;1.9;;;;;;;32.58;35.53027;936.2114;;;;
2022/06/03 10:28:28;;;;;;;3;1.9;;;;;;;32.4;36.75195;936.2603;;;;
2022/06/03 10:30:54;;;;;;;2.1;1.9;;;;;;;31.76;40.87988;936.219;;;;
2022/06/03 10:33:19;;;;;;;2;1.6;;;;;;;32.14;37.98926;936.2324;;;;
2022/06/03 10:35:46;;;;;;;2.1;1.9;;;;;;;31.65;39.01465;936.2173;;;;
2022/06/03 10:38:11;;;;;;;2.2;1.7;;;;;;;32.27;36.81348;936.1803;;;;
2022/06/03 10:40:39;;;;;;;3.2;2;;;;;;;32.41;36.74121;936.1619;;;;
2022/06/03 10:43:02;;;;;;;2.9;2.3;;;;;;;32.37;37.2168;936.142;;;;
2022/06/03 10:45:30;;;;;;;2.9;2.1;;;;;;;32.66;35.52539;936.1398;;;;
2022/06/03 10:47:56;;;;;;;2;1.8;;;;;;;32.54;37.90332;936.079;;;;
2022/06/03 10:50:21;;;;;;;2.8;1.7;;;;;;;32.65;36.40039;936.1186;;;;
2022/06/03 11:02:32;;;;;;;3.5;2.2;;;;;;;31.72;43.37988;936.0076;;;;
2022/06/03 11:04:58;;;;;;;2.6;1.8;;;;;;;31.79;39.90137;935.9662;;;;
2022/06/03 11:07:24;;;;;;;3.7;2;;;;;;;32.23;39.29297;935.983;;;;
2022/06/03 11:09:49;;;;;;;2.6;2.1;;;;;;;32.16;40.22168;935.9956;;;;
2022/06/03 11:12:14;;;;;;;3;1.8;;;;;;;32.26;39.41504;935.9824;;;;
2022/06/03 11:14:39;;;;;;;3.2;1.9;;;;;;;32.33;39.21777;936.003;;;;
2022/06/03 11:17:05;;;;;;;2.3;2.1;;;;;;;32.12;39.81055;936.0078;;;;
2022/06/03 11:19:35;;;;;;;2.9;2.1;;;;;;;32.35;38.88281;935.9781;;;;
2022/06/03 11:22:00;;;;;;;2.3;2.1;;;;;;;32.39;39.68945;935.9821;;;;
2022/06/03 11:24:28;;;;;;;4.5;2.2;;;;;;;32.36;41.91797;936.0488;;;;
2022/06/03 11:26:53;;;;;;;25.1;4.3;;;;;;;32.27;41.34668;935.9819;;;;
2022/06/03 11:29:19;;;;;;;3.9;2.4;;;;;;;32.21;40.90918;936.0174;;;;
2022/06/03 11:31:45;;;;;;;3.7;2.6;;;;;;;32.4;43.25391;936.0033;;;;
2022/06/03 11:34:14;;;;;;;2.4;2.2;;;;;;;32.21;41.125;935.955;;;;
2022/06/03 11:36:39;;;;;;;2.9;2.4;;;;;;;31.73;43.45313;935.9584;;;;
2022/06/03 11:39:04;;;;;;;4.4;2.7;;;;;;;31.52;43.86426;935.9919;;;;
2022/06/03 11:41:30;;;;;;;3.1;2.6;;;;;;;31;45.05664;935.9724;;;;
2022/06/03 11:43:55;;;;;;;4.3;2.2;;;;;;;31.06;44.89551;935.9714;;;;
2022/06/03 11:46:20;;;;;;;3.1;2.4;;;;;;;31.02;43.69629;935.9415;;;;
2022/06/03 11:48:45;;;;;;;2.4;2.2;;;;;;;30.69;45.02637;935.9264;;;;
2022/06/03 11:51:13;;;;;;;3.5;2.2;;;;;;;30.53;44.38867;935.903;;;;
2022/06/03 11:53:39;;;;;;;3.8;2.6;;;;;;;30.14;47.77734;935.8633;;;;
2022/06/03 11:56:10;;;;;;;3.9;2.2;;;;;;;30.01;46.12793;935.8572;;;;
2022/06/03 11:58:39;;;;;;;2.7;2.2;;;;;;;29.9;45.77148;935.8121;;;;
2022/06/03 12:01:05;;;;;;;3.4;2.3;;;;;;;29.78;45.55566;935.8212;;;;
2022/06/03 12:03:31;;;;;;;2.3;2.1;;;;;;;29.7;44.59473;935.8036;;;;
2022/06/03 12:05:56;;;;;;;3;2.3;;;;;;;29.81;44.42676;935.748;;;;
2022/06/03 12:08:24;;;;;;;2.7;2.3;;;;;;;29.6;46.81348;935.8638;;;;
2022/06/03 12:10:49;;;;;;;3.7;2.1;;;;;;;29.34;43.8916;935.8635;;;;
2022/06/03 12:13:17;;;;;;;2.5;2;;;;;;;29.43;43.4834;935.8237;;;;
2022/06/03 12:15:45;;;;;;;2.8;2;;;;;;;29.35;45.20313;935.7876;;;;
2022/06/03 12:18:13;;;;;;;3.4;2.3;;;;;;;29.48;44.67969;935.7966;;;;
2022/06/03 12:20:38;;;;;;;2.3;2.1;;;;;;;29.42;44.08887;935.7516;;;;
2022/06/03 12:23:03;;;;;;;3.9;2.4;;;;;;;29.47;45.56152;935.7452;;;;
2022/06/03 12:25:28;;;;;;;2.2;2;;;;;;;29.54;44.6377;935.7823;;;;
2022/06/03 12:27:54;;;;;;;2.4;2.2;;;;;;;29.61;44.9668;935.803;;;;
2022/06/03 12:30:22;;;;;;;2.2;2;;;;;;;29.47;44.95313;935.801;;;;
2022/06/03 12:32:47;;;;;;;2.3;2.1;;;;;;;29.29;45.49414;935.7109;;;;
2022/06/03 12:35:13;;;;;;;3.1;2.3;;;;;;;29.15;46.57617;935.7544;;;;
2022/06/03 12:37:43;;;;;;;3.8;2.4;;;;;;;28.96;46.4375;935.6853;;;;
2022/06/03 12:40:10;;;;;;;3.7;2.4;;;;;;;29;46.40625;935.6308;;;;
2022/06/03 12:42:37;;;;;;;2.2;2.1;;;;;;;29.04;46.56445;935.6031;;;;
2022/06/03 12:45:05;;;;;;;3.5;2.3;;;;;;;29.08;46.11621;935.5919;;;;
2022/06/03 12:47:30;;;;;;;2.3;1.9;;;;;;;28.91;46.18262;935.5703;;;;
2022/06/03 12:49:57;;;;;;;4.8;2.3;;;;;;;28.88;48.32227;935.5326;;;;
2022/06/03 12:52:22;;;;;;;3.7;1.8;;;;;;;28.74;47.58203;935.5922;;;;
2022/06/03 12:54:47;;;;;;;2.5;2.1;;;;;;;28.75;47.03418;935.5653;;;;
2022/06/03 12:57:12;;;;;;;2.8;2.1;;;;;;;28.85;45.65234;935.6061;;;;
2022/06/03 12:59:37;;;;;;;3.8;2.5;;;;;;;28.91;46.82617;935.6256;;;;
2022/06/03 13:02:02;;;;;;;4.4;2.2;;;;;;;28.88;47.45313;935.6975;;;;
2022/06/03 13:04:27;;;;;;;4.5;2.2;;;;;;;28.85;47.09375;935.7213;;;;
2022/06/03 13:07:09;;;;;;;2.9;2;;;;;;;28.65;46.85742;935.6811;;;;
2022/06/03 13:09:37;;;;;;;22;3.7;;;;;;;28.54;49.11816;935.6877;;;;
2022/06/03 13:12:02;;;;;;;4.2;2.4;;;;;;;28.52;49.15137;935.6612;;;;
2022/06/03 13:14:27;;;;;;;2.8;2;;;;;;;28.4;49.67383;935.6372;;;;
2022/06/03 13:16:54;;;;;;;3.6;2.2;;;;;;;28.19;49.13965;935.5352;;;;
2022/06/03 13:19:20;;;;;;;2.5;2;;;;;;;28.07;49.30371;935.4464;;;;
2022/06/03 13:21:45;;;;;;;3.7;2.2;;;;;;;27.95;49.5293;935.4448;;;;
2022/06/03 13:24:10;;;;;;;4.1;2.4;;;;;;;27.92;49.7627;935.3813;;;;
2022/06/03 13:26:37;;;;;;;2.9;2.4;;;;;;;27.77;49.63965;935.4648;;;;
2022/06/03 13:29:07;;;;;;;3.1;2.3;;;;;;;27.66;50.1377;935.4289;;;;
2022/06/03 13:31:31;;;;;;;2.6;2.4;;;;;;;27.56;50.57715;935.5097;;;;
2022/06/03 13:33:56;;;;;;;2.6;2.4;;;;;;;27.5;50.76074;935.4797;;;;
2022/06/03 13:36:25;;;;;;;2.3;2.1;;;;;;;27.4;50.51074;935.5821;;;;
2022/06/03 13:38:50;;;;;;;3;2.2;;;;;;;27.39;50.32129;935.5481;;;;
2022/06/03 13:43:44;;;;;;;2.8;2.2;;;;;;;27.06;52.00293;935.6668;;;;
2022/06/03 13:46:10;;;;;;;2.9;2.6;;;;;;;27;52.73145;935.7211;;;;
2022/06/03 13:48:38;;;;;;;3.9;2.4;;;;;;;26.84;51.81152;935.6727;;;;
2022/06/03 13:51:04;;;;;;;2.7;2.3;;;;;;;26.75;52.4873;935.759;;;;
2022/06/03 13:53:30;;;;;;;4.4;2.2;;;;;;;26.5;51.99805;935.9213;;;;
2022/06/03 13:55:55;;;;;;;4.3;2.5;;;;;;;26.29;53.83008;936.1131;;;;
2022/06/03 13:58:20;;;;;;;3.4;2.5;;;;;;;26.36;52.99902;936.1998;;;;
2022/06/03 14:00:47;;;;;;;6.2;2.6;;;;;;;26.07;49.0498;936.1986;;;;
2022/06/03 14:03:14;;;;;;;5.4;2.6;;;;;;;25.91;49.48242;936.2828;;;;
2022/06/03 14:05:40;;;;;;;3.9;2.3;;;;;;;25.77;45.44727;936.3038;;;;
2022/06/03 14:08:05;;;;;;;6.2;2.4;;;;;;;25.6;44.46094;936.4352;;;;
2022/06/03 14:10:30;;;;;;;6.3;2.3;;;;;;;25.36;44.08301;936.5797;;;;
2022/06/03 14:12:55;;;;;;;5.4;1.8;;;;;;;24.98;46.46387;936.5822;;;;
2022/06/03 14:15:21;;;;;;;7;2.3;;;;;;;24.55;48.29395;936.7227;;;;
2022/06/03 14:17:46;;;;;;;5.6;2.1;;;;;;;24.21;49.62402;936.7806;;;;
2022/06/03 14:20:11;;;;;;;5.7;2;;;;;;;24.12;50.08398;936.8742;;;;
2022/06/03 14:22:36;;;;;;;4.5;1.8;;;;;;;23.86;51.23242;937.0287;;;;
2022/06/03 14:25:02;;;;;;;7.6;2.4;;;;;;;23.61;52.68555;937.0844;;;;
2022/06/03 14:27:26;;;;;;;6.3;2.1;;;;;;;23.44;57.75684;937.1029;;;;
2022/06/03 14:29:51;;;;;;;6.4;2.1;;;;;;;23.34;56.61523;937.1401;;;;
2022/06/03 14:32:17;;;;;;;2.9;2.1;;;;;;;23.23;55.02637;937.182;;;;
2022/06/03 14:34:42;;;;;;;6.5;2.2;;;;;;;23.25;54.59375;937.1842;;;;
2022/06/03 14:37:07;;;;;;;3.8;1.9;;;;;;;23.32;56.0957;937.1808;;;;
2022/06/03 14:39:32;;;;;;;6.5;2.5;;;;;;;23.51;56.88477;937.1842;;;;
2022/06/03 14:42:01;;;;;;;4.5;2.3;;;;;;;23.38;56.91309;937.1685;;;;
2022/06/03 14:44:29;;;;;;;5.1;2.4;;;;;;;23.28;59.0293;937.1976;;;;
2022/06/03 14:46:58;;;;;;;5.1;2.6;;;;;;;23.26;62.51758;937.2122;;;;
2022/06/03 14:49:23;;;;;;;5.2;2.9;;;;;;;23.46;64.41406;937.2492;;;;
2022/06/03 14:51:48;;;;;;;6.6;3.2;;;;;;;23.45;67;937.2195;;;;
2022/06/03 14:54:14;;;;;;;6.8;3.3;;;;;;;23.5;66.2793;937.28;;;;
2022/06/03 14:56:39;;;;;;;6.4;3.1;;;;;;;23.03;65.81055;937.2466;;;;
2022/06/03 14:59:06;;;;;;;4.3;2.8;;;;;;;23.02;64.90234;937.2484;;;;
2022/06/03 15:01:40;;;;;;;9;3.1;;;;;;;23.13;63.23926;937.2305;;;;
2022/06/03 15:03:56;;;;;;;5.1;2.4;;;;;;;22.93;64.45605;937.1919;;;;
2022/06/03 15:06:22;;;;;;;4.1;2.1;;;;;;;22.83;62.5498;937.1555;;;;
2022/06/03 15:08:47;;;;;;;4;2.5;;;;;;;22.91;67.21289;937.187;;;;
2022/06/03 15:11:12;;;;;;;4.1;2.5;;;;;;;22.88;65.63574;937.2344;;;;
2022/06/03 15:13:37;;;;;;;4.3;2.4;;;;;;;22.8;67.52539;937.2208;;;;
2022/06/03 15:16:02;;;;;;;4.8;2.3;;;;;;;22.6;66.09863;937.1715;;;;
2022/06/03 15:18:29;;;;;;;4.8;2.4;;;;;;;22.56;65.45703;937.0888;;;;
2022/06/03 15:20:53;;;;;;;4.4;2.1;;;;;;;22.29;63.55371;936.9607;;;;
2022/06/03 15:23:20;;;;;;;2.9;1.7;;;;;;;22.12;63.81055;936.9419;;;;
2022/06/03 15:25:44;;;;;;;5.9;2.4;;;;;;;21.86;64.34863;936.9172;;;;
2022/06/03 15:28:10;;;;;;;4.5;2;;;;;;;22.03;65.33301;936.8936;;;;
2022/06/03 15:30:35;;;;;;;3.5;1.9;;;;;;;22.01;64.55664;936.8178;;;;
2022/06/03 15:33:03;;;;;;;5.4;2.3;;;;;;;22.05;64.86719;936.8898;;;;
2022/06/03 15:35:28;;;;;;;4.9;1.9;;;;;;;22.1;62.94043;936.7902;;;;
2022/06/03 15:37:53;;;;;;;5.6;2;;;;;;;22.23;62.0791;936.7975;;;;
2022/06/03 15:40:20;;;;;;;5;2.1;;;;;;;22.26;61.25098;936.8976;;;;
2022/06/03 15:42:46;;;;;;;3.1;1.8;;;;;;;22.28;60.67773;936.8535;;;;
2022/06/03 15:45:17;;;;;;;3.6;1.8;;;;;;;22.22;61.91309;936.9648;;;;
2022/06/03 15:47:43;;;;;;;2.7;1.9;;;;;;;22.27;61.49902;936.9631;;;;
2022/06/03 15:50:09;;;;;;;3.7;1.9;;;;;;;22.14;60.81152;936.9411;;;;
2022/06/03 15:52:36;;;;;;;4.5;1.9;;;;;;;22.1;61.59277;937.0204;;;;
2022/06/03 15:55:01;;;;;;;3.6;1.8;;;;;;;22.25;60.45313;937.0378;;;;
2022/06/03 15:57:31;;;;;;;5;2.1;;;;;;;22.11;61.74609;937.0994;;;;
2022/06/03 15:59:56;;;;;;;4.6;1.8;;;;;;;22.22;60.30859;937.1027;;;;
2022/06/03 16:02:21;;;;;;;4.2;1.9;;;;;;;22.32;59.85156;937.1171;;;;
2022/06/03 16:04:48;;;;;;;4.1;2;;;;;;;22.49;62.18457;937.2068;;;;
2022/06/03 16:07:15;;;;;;;5.3;2.5;;;;;;;22.7;62.7207;937.2279;;;;
2022/06/03 16:09:40;;;;;;;4.2;2.2;;;;;;;22.88;63.54492;937.2394;;;;
2022/06/03 16:12:05;;;;;;;3.5;2.5;;;;;;;23.01;65.11426;937.2651;;;;